Time;durP1;ratioP1;P1;durP2;ratioP2;P2;SDS_P1;SDS_P2;PMS_P1;PMS_P2;Temp;Humidity;BMP_temperature;BMP_pressure;BME280_temperature;BME280_humidity;BME280_pressure;Samples;Min_cycle;Max_cycle;Signal;HPM_P1;HPM_P2
2022/01/31 00:00:25;;;;;;;55.10;35.35;;;;;;;-3.12;100.00;96422.75;5008704;28;20013;-61
2022/01/31 00:02:50;;;;;;;49.97;31.98;;;;;;;-3.10;100.00;96415.81;5008649;28;20018;-60
2022/01/31 00:05:17;;;;;;;51.53;32.10;;;;;;;-3.09;100.00;96413.22;5010393;28;20030;-60
2022/01/31 00:07:42;;;;;;;70.75;40.15;;;;;;;-3.05;100.00;96401.09;5011358;28;20029;-60
2022/01/31 00:10:12;;;;;;;74.00;43.70;;;;;;;-3.05;100.00;96398.50;5011198;28;20022;-60
2022/01/31 00:12:49;;;;;;;75.03;45.38;;;;;;;-3.10;100.00;96392.66;5011280;28;20049;-60
2022/01/31 00:15:15;;;;;;;68.38;42.10;;;;;;;-3.13;100.00;96379.84;5011123;28;20034;-61
2022/01/31 00:17:41;;;;;;;62.88;38.58;;;;;;;-3.17;100.00;96369.63;5009331;28;20401;-60
2022/01/31 00:20:07;;;;;;;51.72;32.42;;;;;;;-3.21;100.00;96365.41;5009869;28;20425;-60
2022/01/31 00:22:32;;;;;;;42.05;29.48;;;;;;;-3.21;100.00;96367.16;5010134;28;20345;-60
2022/01/31 00:24:57;;;;;;;45.85;25.30;;;;;;;-3.11;100.00;96371.19;5010373;28;20041;-60
2022/01/31 00:27:23;;;;;;;41.30;27.23;;;;;;;-3.14;100.00;96362.69;5010278;28;20104;-61
2022/01/31 00:29:48;;;;;;;32.50;22.35;;;;;;;-3.05;100.00;96365.03;5010979;28;20056;-60
2022/01/31 00:32:13;;;;;;;37.17;25.75;;;;;;;-2.94;100.00;96375.88;5011712;28;20030;-61
2022/01/31 00:34:39;;;;;;;38.95;25.65;;;;;;;-2.96;100.00;96369.94;5010743;28;20488;-60
2022/01/31 00:37:04;;;;;;;38.22;25.50;;;;;;;-2.88;100.00;96357.66;5010446;28;20030;-61
2022/01/31 00:39:35;;;;;;;34.67;23.73;;;;;;;-2.91;100.00;96359.47;5011091;28;20022;-61
2022/01/31 00:42:02;;;;;;;36.97;25.27;;;;;;;-2.96;100.00;96353.63;5011049;28;20022;-60
2022/01/31 00:44:38;;;;;;;41.15;27.40;;;;;;;-2.98;100.00;96353.69;5010941;28;20034;-60
2022/01/31 00:47:15;;;;;;;37.88;27.20;;;;;;;-3.03;100.00;96352.94;5006359;28;21097;-60
2022/01/31 00:49:42;;;;;;;37.50;29.40;;;;;;;-3.04;100.00;96357.25;5007537;28;20509;-60
2022/01/31 00:52:07;;;;;;;40.08;27.77;;;;;;;-3.06;100.00;96355.59;5010832;28;20080;-60
2022/01/31 00:54:32;;;;;;;40.28;28.98;;;;;;;-3.08;100.00;96363.38;5010607;28;20034;-60
2022/01/31 00:56:58;;;;;;;47.05;30.02;;;;;;;-3.12;100.00;96359.19;5009426;28;20109;-60
2022/01/31 00:59:24;;;;;;;42.58;29.98;;;;;;;-3.19;100.00;96350.81;5009769;28;20097;-60
2022/01/31 01:01:49;;;;;;;41.65;28.40;;;;;;;-3.19;100.00;96350.81;5009841;28;20117;-60
2022/01/31 01:04:15;;;;;;;43.95;28.77;;;;;;;-3.19;100.00;96340.50;5009870;28;20045;-60
2022/01/31 01:06:41;;;;;;;40.70;26.38;;;;;;;-3.18;100.00;96336.16;5010308;28;20033;-61
2022/01/31 01:09:07;;;;;;;47.63;28.85;;;;;;;-3.11;100.00;96323.97;5010790;28;20109;-60
2022/01/31 01:11:33;;;;;;;43.15;28.75;;;;;;;-3.07;100.00;96320.41;5010638;28;20018;-60
2022/01/31 01:13:58;;;;;;;45.10;28.10;;;;;;;-3.08;100.00;96316.16;5010848;28;20109;-60
2022/01/31 01:16:23;;;;;;;44.95;28.27;;;;;;;-3.19;100.00;96317.31;5010656;28;20481;-60
2022/01/31 01:18:49;;;;;;;38.70;25.23;;;;;;;-3.27;100.00;96319.22;5010610;28;20480;-60
2022/01/31 01:21:14;;;;;;;37.22;24.38;;;;;;;-3.25;100.00;96319.22;5010684;28;20038;-60
2022/01/31 01:23:40;;;;;;;41.20;26.48;;;;;;;-3.20;100.00;96312.19;5009789;28;20068;-60
2022/01/31 01:26:05;;;;;;;46.25;26.70;;;;;;;-3.17;100.00;96318.13;5010889;28;20091;-60
2022/01/31 01:28:31;;;;;;;39.53;26.02;;;;;;;-3.24;100.00;96331.19;5010552;28;20084;-60
2022/01/31 01:30:57;;;;;;;42.30;24.92;;;;;;;-3.30;100.00;96337.34;5010603;28;20112;-61
2022/01/31 01:33:24;;;;;;;36.70;24.00;;;;;;;-3.28;100.00;96345.88;5009557;28;20122;-60
2022/01/31 01:35:53;;;;;;;37.92;24.45;;;;;;;-3.25;100.00;96350.13;5010204;28;20065;-60
2022/01/31 01:38:22;;;;;;;33.38;21.67;;;;;;;-3.26;100.00;96356.97;5010442;28;20026;-60
2022/01/31 01:40:48;;;;;;;33.67;21.88;;;;;;;-3.01;100.00;96364.03;5010498;28;20033;-60
2022/01/31 01:43:15;;;;;;;30.05;20.70;;;;;;;-3.07;100.00;96359.94;5015594;28;20033;-60
2022/01/31 01:45:42;;;;;;;33.80;21.40;;;;;;;-3.14;100.00;96371.25;5010268;28;20173;-60
2022/01/31 01:48:09;;;;;;;31.77;21.65;;;;;;;-3.14;100.00;96367.84;5013434;28;20032;-60
2022/01/31 01:50:36;;;;;;;32.72;21.98;;;;;;;-3.14;100.00;96367.84;5013980;28;20022;-61
2022/01/31 01:53:02;;;;;;;34.53;21.95;;;;;;;-3.10;100.00;96366.88;5013950;28;20049;-60
2022/01/31 01:55:28;;;;;;;32.25;21.75;;;;;;;-3.04;100.00;96380.44;5014099;28;20489;-60
2022/01/31 01:57:55;;;;;;;31.55;22.05;;;;;;;-2.97;100.00;96391.44;5013934;28;20041;-60
2022/01/31 02:00:25;;;;;;;32.80;21.45;;;;;;;-2.95;100.00;96392.25;5013851;28;21696;-60
2022/01/31 02:02:51;;;;;;;31.38;21.27;;;;;;;-2.93;100.00;96387.88;5014104;28;20075;-61
2022/01/31 02:05:17;;;;;;;38.72;25.05;;;;;;;-2.82;100.00;96387.59;5013705;28;20116;-60
2022/01/31 02:07:43;;;;;;;35.53;23.63;;;;;;;-2.77;100.00;96374.53;5013564;28;20104;-60
2022/01/31 02:10:09;;;;;;;35.78;23.13;;;;;;;-2.75;100.00;96372.81;5014002;28;20117;-60
2022/01/31 02:12:52;;;;;;;30.98;21.52;;;;;;;-2.73;100.00;96373.59;5013562;28;20061;-60
2022/01/31 02:15:23;;;;;;;38.88;23.13;;;;;;;-2.73;100.00;96365.88;5010275;28;20033;-60
2022/01/31 02:17:48;;;;;;;33.65;22.52;;;;;;;-2.67;100.00;96354.50;5013133;28;20050;-60
2022/01/31 02:20:13;;;;;;;34.05;22.08;;;;;;;-2.64;100.00;96362.19;5012035;28;20402;-60
2022/01/31 02:22:39;;;;;;;36.22;23.38;;;;;;;-2.64;100.00;96359.59;5013243;28;20030;-60
2022/01/31 02:25:05;;;;;;;32.47;22.35;;;;;;;-2.64;100.00;96342.38;5013244;28;20030;-61
2022/01/31 02:27:35;;;;;;;34.25;20.88;;;;;;;-2.54;100.00;96326.63;5013395;28;20401;-60
2022/01/31 02:30:01;;;;;;;28.35;20.08;;;;;;;-2.61;100.00;96339.72;5013150;28;20095;-60
2022/01/31 02:32:26;;;;;;;29.23;21.17;;;;;;;-2.68;100.00;96345.94;5012305;28;20405;-60
2022/01/31 02:34:52;;;;;;;31.88;21.13;;;;;;;-2.65;100.00;96324.41;5012944;28;20053;-60
2022/01/31 02:37:19;;;;;;;29.23;20.80;;;;;;;-2.68;100.00;96314.16;5011825;28;20026;-60
2022/01/31 02:39:45;;;;;;;30.67;20.23;;;;;;;-2.71;100.00;96304.78;5013318;28;20033;-61
2022/01/31 02:42:12;;;;;;;27.88;19.65;;;;;;;-2.72;100.00;96292.78;5013044;28;20106;-60
2022/01/31 02:44:42;;;;;;;27.65;19.10;;;;;;;-2.76;100.00;96296.34;5012882;28;20396;-60
2022/01/31 02:47:15;;;;;;;29.95;19.50;;;;;;;-2.77;100.00;96303.22;5011669;28;20033;-60
2022/01/31 02:50:00;;;;;;;33.97;20.05;;;;;;;-2.75;100.00;96293.72;5004926;28;20061;-60
2022/01/31 02:52:30;;;;;;;32.08;20.10;;;;;;;-2.52;100.00;96284.44;5012720;28;20116;-60
2022/01/31 02:54:56;;;;;;;29.40;17.70;;;;;;;-2.53;100.00;96287.09;5011849;28;20065;-60
2022/01/31 02:57:21;;;;;;;23.25;17.15;;;;;;;-2.54;100.00;96301.69;5012580;28;20061;-60
2022/01/31 02:59:46;;;;;;;29.67;20.50;;;;;;;-2.51;100.00;96280.16;5012129;28;20032;-61
2022/01/31 03:02:12;;;;;;;34.17;20.15;;;;;;;-2.34;100.00;96277.03;5012597;28;20026;-60
2022/01/31 03:04:37;;;;;;;28.15;20.60;;;;;;;-2.26;100.00;96281.94;5012736;28;20076;-61
2022/01/31 03:07:03;;;;;;;35.35;20.98;;;;;;;-2.10;100.00;96292.63;5012585;28;20025;-60
2022/01/31 03:09:28;;;;;;;35.70;20.77;;;;;;;-1.92;100.00;96304.06;5012814;28;20026;-60
2022/01/31 03:11:54;;;;;;;29.67;20.48;;;;;;;-1.91;100.00;96313.50;5012498;28;20114;-60
2022/01/31 03:14:19;;;;;;;29.27;21.80;;;;;;;-1.90;100.00;96310.03;5010941;28;20559;-60
2022/01/31 03:16:48;;;;;;;32.25;20.65;;;;;;;-1.87;100.00;96310.78;5012950;28;20452;-60
2022/01/31 03:19:16;;;;;;;28.52;21.08;;;;;;;-1.88;100.00;96295.31;5012012;28;20533;-60
2022/01/31 03:21:42;;;;;;;35.58;21.17;;;;;;;-1.86;100.00;96285.81;5012279;28;20030;-60
2022/01/31 03:24:09;;;;;;;32.65;21.02;;;;;;;-1.60;100.00;96305.56;5011398;28;20030;-60
2022/01/31 03:26:36;;;;;;;28.40;19.88;;;;;;;-1.66;100.00;96338.50;5011682;28;20018;-60
2022/01/31 03:29:01;;;;;;;35.90;21.60;;;;;;;-1.67;100.00;96323.91;5011845;28;20512;-60
2022/01/31 03:31:27;;;;;;;25.10;18.10;;;;;;;-1.67;100.00;96336.81;5012415;28;20029;-60
2022/01/31 03:33:54;;;;;;;26.25;17.00;;;;;;;-1.54;100.00;96345.84;5012125;28;20127;-60
2022/01/31 03:36:20;;;;;;;22.48;16.45;;;;;;;-1.54;100.00;96335.53;5011767;28;20163;-60
2022/01/31 03:38:46;;;;;;;23.77;16.88;;;;;;;-1.59;100.00;96324.50;5012311;28;20117;-60
2022/01/31 03:41:13;;;;;;;27.20;18.30;;;;;;;-1.60;100.00;96321.06;5012048;28;20033;-60
2022/01/31 03:43:40;;;;;;;25.20;18.52;;;;;;;-1.58;100.00;96305.53;5004803;28;20030;-60
2022/01/31 03:46:06;;;;;;;26.17;16.92;;;;;;;-1.53;100.00;96331.22;5011872;28;20034;-61
2022/01/31 03:48:32;;;;;;;25.25;18.13;;;;;;;-1.51;100.00;96345.75;5011596;28;20033;-60
2022/01/31 03:51:00;;;;;;;29.67;17.92;;;;;;;-1.47;100.00;96343.91;5011837;28;20113;-60
2022/01/31 03:53:26;;;;;;;23.95;16.50;;;;;;;-1.46;100.00;96354.16;5012170;28;20084;-60
2022/01/31 03:55:51;;;;;;;25.50;15.70;;;;;;;-1.38;100.00;96376.34;5011622;28;20461;-61
2022/01/31 03:58:17;;;;;;;20.13;15.85;;;;;;;-1.31;100.00;96388.13;5011619;28;20053;-61
2022/01/31 04:00:43;;;;;;;21.10;14.90;;;;;;;-1.31;100.00;96390.72;5012006;28;20101;-61
2022/01/31 04:03:09;;;;;;;20.85;14.60;;;;;;;-1.29;100.00;96391.50;5011594;28;20125;-60
2022/01/31 04:05:36;;;;;;;21.48;15.25;;;;;;;-1.28;100.00;96392.38;5011387;28;20029;-61
2022/01/31 04:08:02;;;;;;;20.92;15.70;;;;;;;-1.26;100.00;96382.81;5011446;28;20084;-60
2022/01/31 04:10:28;;;;;;;20.40;14.70;;;;;;;-1.08;100.00;96389.94;5010638;28;20017;-61
2022/01/31 04:12:53;;;;;;;21.60;16.05;;;;;;;-1.01;100.00;96396.59;5011074;28;20512;-61
2022/01/31 04:15:18;;;;;;;23.15;14.57;;;;;;;-1.05;100.00;96404.50;5011770;28;20040;-60
2022/01/31 04:17:45;;;;;;;16.52;12.50;;;;;;;-1.00;100.00;96400.00;5011175;28;20457;-60
2022/01/31 04:20:11;;;;;;;18.67;12.90;;;;;;;-1.01;100.00;96395.72;5011344;28;20113;-61
2022/01/31 04:22:43;;;;;;;17.52;12.60;;;;;;;-1.05;100.00;96412.25;5011219;28;20105;-60
2022/01/31 04:25:17;;;;;;;16.52;13.13;;;;;;;-1.04;100.00;96424.28;5010972;28;20113;-60
2022/01/31 04:27:50;;;;;;;17.77;13.13;;;;;;;-1.05;100.00;96426.03;5011060;28;20105;-60
2022/01/31 04:30:16;;;;;;;17.13;12.40;;;;;;;-1.08;100.00;96436.47;5011159;28;20026;-61
2022/01/31 04:32:41;;;;;;;18.77;13.02;;;;;;;-1.07;100.00;96438.16;5011095;28;20018;-60
2022/01/31 04:35:07;;;;;;;18.08;13.05;;;;;;;-1.06;100.00;96439.84;5011543;28;20057;-61
2022/01/31 04:37:32;;;;;;;15.02;12.35;;;;;;;-1.07;100.00;96426.97;5011457;28;20022;-61
2022/01/31 04:39:58;;;;;;;16.33;12.27;;;;;;;-1.07;100.00;96424.38;5011558;28;20470;-61
2022/01/31 04:42:24;;;;;;;17.45;13.98;;;;;;;-1.06;100.00;96436.41;5011393;28;20095;-61
2022/01/31 04:44:50;;;;;;;17.20;13.65;;;;;;;-1.07;100.00;96433.00;5011409;28;20073;-61
2022/01/31 04:47:15;;;;;;;16.63;13.00;;;;;;;-1.04;100.00;96429.44;5011509;28;20057;-61
2022/01/31 04:49:40;;;;;;;19.90;14.65;;;;;;;-1.02;100.00;96430.22;5011299;28;20030;-60
2022/01/31 04:52:06;;;;;;;21.23;15.00;;;;;;;-0.98;100.00;96429.25;5011491;28;20118;-61
2022/01/31 04:54:31;;;;;;;19.13;13.55;;;;;;;-0.98;100.00;96420.63;5011512;28;20030;-61
2022/01/31 04:56:57;;;;;;;19.27;15.63;;;;;;;-0.97;100.00;96423.19;5011495;28;20499;-61
2022/01/31 04:59:22;;;;;;;19.42;15.60;;;;;;;-0.98;100.00;96413.75;5011454;28;20030;-61
2022/01/31 05:01:49;;;;;;;19.15;14.85;;;;;;;-0.98;100.00;96411.16;5011387;28;20029;-61
2022/01/31 05:04:14;;;;;;;18.27;14.82;;;;;;;-0.94;100.00;96398.94;5011296;28;20444;-61
2022/01/31 05:06:42;;;;;;;18.63;14.18;;;;;;;-0.90;100.00;96390.19;5011329;28;20034;-61
2022/01/31 05:09:09;;;;;;;20.65;15.82;;;;;;;-0.93;100.00;96391.16;5011259;28;20081;-61
2022/01/31 05:11:35;;;;;;;18.38;15.07;;;;;;;-0.90;100.00;96383.28;5011230;28;20068;-60
2022/01/31 05:14:00;;;;;;;19.25;15.27;;;;;;;-0.89;100.00;96368.59;5011370;28;20033;-61
2022/01/31 05:16:26;;;;;;;21.27;16.05;;;;;;;-0.90;100.00;96357.44;5011201;28;20060;-61
2022/01/31 05:18:51;;;;;;;22.70;15.52;;;;;;;-0.89;100.00;96343.59;5009697;28;20104;-61
2022/01/31 05:21:16;;;;;;;29.40;18.45;;;;;;;-0.89;100.00;96351.34;5010781;28;20053;-61
2022/01/31 05:23:42;;;;;;;22.83;16.70;;;;;;;-0.89;100.00;96356.53;5014912;28;20460;-61
2022/01/31 05:26:07;;;;;;;23.10;17.05;;;;;;;-0.97;100.00;96337.88;5015230;28;20083;-61
2022/01/31 05:28:33;;;;;;;26.13;17.80;;;;;;;-0.99;100.00;96339.69;5014935;28;20037;-61
2022/01/31 05:30:58;;;;;;;28.13;19.75;;;;;;;-0.96;100.00;96331.81;5014762;28;20025;-61
2022/01/31 05:33:23;;;;;;;27.90;19.40;;;;;;;-0.85;100.00;96327.97;5014669;28;20453;-61
2022/01/31 05:35:49;;;;;;;29.27;21.02;;;;;;;-0.88;100.00;96342.69;5014784;28;20022;-61
2022/01/31 05:38:14;;;;;;;29.83;19.88;;;;;;;-0.88;100.00;96347.03;5014603;28;20088;-61
2022/01/31 05:40:40;;;;;;;29.05;19.23;;;;;;;-0.81;100.00;96345.91;5014571;28;20113;-61
2022/01/31 05:43:05;;;;;;;34.15;27.27;;;;;;;-0.62;100.00;96334.88;5014471;28;20033;-61
2022/01/31 05:45:31;;;;;;;33.08;23.90;;;;;;;-0.71;100.00;96315.38;5014408;28;20092;-61
2022/01/31 05:47:56;;;;;;;33.65;22.67;;;;;;;-0.70;100.00;96311.91;5014591;28;20034;-61
2022/01/31 05:50:22;;;;;;;34.30;23.02;;;;;;;-0.67;100.00;96323.84;5014566;28;20034;-61
2022/01/31 05:52:48;;;;;;;30.15;22.98;;;;;;;-0.77;100.00;96337.13;5014179;28;20482;-61
2022/01/31 05:55:14;;;;;;;35.05;22.77;;;;;;;-0.74;100.00;96336.19;5014018;28;20033;-61
2022/01/31 05:57:41;;;;;;;34.90;23.05;;;;;;;-0.74;100.00;96320.69;5013990;28;20104;-62
2022/01/31 06:00:08;;;;;;;34.80;22.90;;;;;;;-0.71;100.00;96323.13;5014374;28;20105;-61
2022/01/31 06:02:35;;;;;;;32.28;24.02;;;;;;;-0.67;100.00;96319.53;5014074;28;20053;-61
2022/01/31 06:05:01;;;;;;;37.08;24.55;;;;;;;-0.53;100.00;96325.94;5014126;28;20410;-61
2022/01/31 06:07:26;;;;;;;32.30;23.30;;;;;;;-0.55;100.00;96338.06;5014002;28;20032;-61
2022/01/31 06:09:52;;;;;;;35.58;24.48;;;;;;;-0.61;100.00;96336.56;5013911;28;20481;-61
2022/01/31 06:12:17;;;;;;;34.03;23.40;;;;;;;-0.62;100.00;96355.59;5013427;28;20060;-61
2022/01/31 06:14:42;;;;;;;32.80;24.35;;;;;;;-0.62;100.00;96363.34;5013276;28;20052;-61
2022/01/31 06:17:08;;;;;;;35.97;24.38;;;;;;;-0.60;100.00;96380.47;5013296;28;20029;-61
2022/01/31 06:19:33;;;;;;;32.20;22.95;;;;;;;-0.56;100.00;96370.88;5013201;28;20049;-61
2022/01/31 06:21:58;;;;;;;29.27;20.67;;;;;;;-0.52;100.00;96387.13;5012059;28;20038;-61
2022/01/31 06:24:24;;;;;;;30.75;24.17;;;;;;;-0.52;100.00;96389.72;5013064;28;20057;-61
2022/01/31 06:26:49;;;;;;;33.80;23.95;;;;;;;-0.56;100.00;96375.19;5012261;28;20438;-61
2022/01/31 06:29:15;;;;;;;31.80;23.88;;;;;;;-0.58;100.00;96373.50;5013677;28;20033;-61
2022/01/31 06:31:40;;;;;;;35.92;23.00;;;;;;;-0.55;100.00;96372.56;5012600;28;20030;-60
2022/01/31 06:34:06;;;;;;;33.90;24.58;;;;;;;-0.54;100.00;96386.34;5012255;28;20039;-61
2022/01/31 06:36:31;;;;;;;45.13;34.03;;;;;;;-0.55;100.00;96401.00;5013501;28;20053;-61
2022/01/31 06:38:57;;;;;;;35.50;25.17;;;;;;;-0.52;100.00;96400.06;5013469;28;20045;-61
2022/01/31 06:41:24;;;;;;;34.22;23.08;;;;;;;-0.45;100.00;96391.16;5013136;28;20040;-59
2022/01/31 06:43:50;;;;;;;29.90;19.55;;;;;;;-0.33;100.00;96389.84;5013642;28;20037;-60
2022/01/31 06:46:16;;;;;;;34.00;22.73;;;;;;;-0.27;100.00;96383.63;5012292;28;20046;-60
2022/01/31 06:48:42;;;;;;;29.55;19.85;;;;;;;-0.32;100.00;96384.63;5012480;28;20665;-60
2022/01/31 06:51:08;;;;;;;28.42;20.02;;;;;;;-0.36;100.00;96369.28;5011602;28;20026;-60
2022/01/31 06:53:34;;;;;;;23.42;17.92;;;;;;;-0.35;100.00;96364.03;5013359;28;20034;-59
2022/01/31 06:55:59;;;;;;;25.42;18.70;;;;;;;-0.32;100.00;96378.59;5011821;28;20030;-60
2022/01/31 06:58:25;;;;;;;25.05;18.13;;;;;;;-0.36;100.00;96366.69;5012559;28;20041;-62
2022/01/31 07:00:51;;;;;;;23.25;18.05;;;;;;;-0.38;100.00;96363.31;5012376;28;20017;-61
2022/01/31 07:03:17;;;;;;;25.90;18.50;;;;;;;-0.38;100.00;96365.91;5009210;28;20410;-61
2022/01/31 07:05:44;;;;;;;26.20;19.13;;;;;;;-0.39;100.00;96374.56;5012735;28;20116;-59
2022/01/31 07:08:10;;;;;;;29.98;20.02;;;;;;;-0.37;100.00;96372.75;5011300;28;20113;-61
2022/01/31 07:10:37;;;;;;;26.15;19.67;;;;;;;-0.38;100.00;96356.38;5010739;28;20409;-61
2022/01/31 07:13:11;;;;;;;29.35;19.98;;;;;;;-0.36;100.00;96354.59;5010386;28;20030;-60
2022/01/31 07:15:37;;;;;;;27.30;20.80;;;;;;;-0.32;100.00;96357.91;5004619;28;20382;-60
2022/01/31 07:18:02;;;;;;;24.15;19.77;;;;;;;-0.31;100.00;96352.69;5010926;28;20053;-60
2022/01/31 07:20:40;;;;;;;31.70;20.67;;;;;;;-0.33;100.00;96362.25;5011409;28;20404;-59
2022/01/31 07:23:14;;;;;;;27.75;21.65;;;;;;;-0.32;100.00;96356.16;5007826;28;20041;-58
2022/01/31 07:25:39;;;;;;;27.45;20.55;;;;;;;-0.28;100.00;96350.88;5011324;28;20038;-58
2022/01/31 07:28:08;;;;;;;28.35;21.20;;;;;;;-0.22;100.00;96348.03;5012028;28;20497;-58
2022/01/31 07:30:35;;;;;;;26.90;20.55;;;;;;;-0.12;100.00;96333.00;5010261;28;20033;-58
2022/01/31 07:33:01;;;;;;;26.92;19.95;;;;;;;-0.05;100.00;96335.28;5012523;28;20442;-59
2022/01/31 07:35:27;;;;;;;31.35;22.08;;;;;;;0.02;100.00;96324.69;5012368;28;20109;-58
2022/01/31 07:37:52;;;;;;;26.17;20.95;;;;;;;0.12;100.00;96320.84;5012584;28;20032;-57
2022/01/31 07:40:18;;;;;;;27.48;21.83;;;;;;;0.14;100.00;96314.66;5012343;28;20092;-59
2022/01/31 07:42:43;;;;;;;29.17;21.65;;;;;;;0.20;100.00;96303.22;5012505;28;20084;-59
2022/01/31 07:45:09;;;;;;;30.77;21.48;;;;;;;0.27;100.00;96314.19;5011646;28;20025;-57
2022/01/31 07:47:35;;;;;;;28.60;21.13;;;;;;;0.28;100.00;96318.44;5005702;28;20026;-58
2022/01/31 07:50:01;;;;;;;30.80;24.27;;;;;;;0.27;100.00;96314.19;5009523;28;20513;-58
2022/01/31 07:52:26;;;;;;;41.67;29.08;;;;;;;0.62;100.00;96319.59;5011925;28;20108;-51
2022/01/31 07:54:52;;;;;;;37.60;27.92;;;;;;;0.54;100.00;96306.16;5011521;28;20540;-49
2022/01/31 07:57:19;;;;;;;33.58;26.77;;;;;;;0.51;100.00;96311.47;5011110;28;20026;-51
2022/01/31 07:59:44;;;;;;;33.72;24.30;;;;;;;0.53;100.00;96323.44;5009582;28;20026;-50
2022/01/31 08:02:10;;;;;;;38.67;28.20;;;;;;;0.57;100.00;96325.00;5011016;28;20148;-52
2022/01/31 08:04:35;;;;;;;38.38;30.67;;;;;;;0.60;100.00;96325.78;5011707;28;20034;-48
2022/01/31 08:07:00;;;;;;;44.97;36.45;;;;;;;0.59;100.00;96324.09;5011473;28;20030;-51
2022/01/31 08:09:26;;;;;;;43.38;34.00;;;;;;;0.65;100.00;96336.78;5011106;28;20018;-48
2022/01/31 08:11:51;;;;;;;43.92;33.92;;;;;;;1.12;100.00;96341.66;5011368;28;20026;-52
2022/01/31 08:14:18;;;;;;;47.40;34.85;;;;;;;0.90;99.82;96351.28;5011168;28;20500;-52
2022/01/31 08:16:44;;;;;;;54.67;33.70;;;;;;;0.82;99.95;96346.44;5010887;28;20025;-47
2022/01/31 08:19:09;;;;;;;37.85;31.48;;;;;;;0.80;100.00;96345.66;5009465;28;20038;-49
2022/01/31 08:21:36;;;;;;;33.78;27.45;;;;;;;0.79;100.00;96352.59;5010001;28;20049;-48
2022/01/31 08:24:02;;;;;;;30.88;23.45;;;;;;;0.85;100.00;96359.25;5010305;28;20553;-51
2022/01/31 08:26:28;;;;;;;22.52;18.10;;;;;;;0.99;100.00;96382.00;5009784;28;20026;-49
2022/01/31 08:28:57;;;;;;;21.98;17.67;;;;;;;0.99;100.00;96382.00;5010347;28;20113;-52
2022/01/31 08:31:29;;;;;;;28.83;20.48;;;;;;;1.16;97.90;96372.66;5010708;28;20108;-52
2022/01/31 08:36:22;;;;;;;29.17;21.85;;;;;;;1.03;96.99;96359.38;5009589;28;20482;-51
2022/01/31 08:38:47;;;;;;;27.25;21.25;;;;;;;0.97;97.47;96347.50;5010836;28;20022;-53
2022/01/31 08:41:13;;;;;;;26.65;18.33;;;;;;;0.93;97.57;96344.22;5010499;28;20455;-48
2022/01/31 08:43:39;;;;;;;26.92;17.75;;;;;;;1.02;97.96;96329.16;5009563;28;20041;-49
2022/01/31 08:46:06;;;;;;;27.98;22.73;;;;;;;1.14;97.75;96331.22;5010903;28;20030;-50
2022/01/31 08:48:32;;;;;;;33.13;24.73;;;;;;;1.24;96.61;96321.28;5010080;28;20159;-49
2022/01/31 08:50:58;;;;;;;25.23;21.85;;;;;;;1.31;96.15;96314.91;5009560;28;20507;-49
2022/01/31 08:53:24;;;;;;;26.83;22.35;;;;;;;1.42;96.30;96307.44;5009860;28;20037;-49
2022/01/31 08:55:55;;;;;;;25.88;21.52;;;;;;;1.56;95.88;96308.59;5010255;28;20030;-53
2022/01/31 08:58:22;;;;;;;25.02;19.08;;;;;;;1.71;95.72;96302.69;5013627;28;20833;-54
2022/01/31 09:00:51;;;;;;;22.92;17.60;;;;;;;1.86;94.27;96288.13;5010716;28;20017;-50
2022/01/31 09:05:43;;;;;;;20.42;16.63;;;;;;;1.99;93.37;96267.59;5014282;28;20096;-49
2022/01/31 09:08:08;;;;;;;24.90;20.20;;;;;;;2.02;92.87;96251.03;5013796;28;20026;-51
2022/01/31 09:10:34;;;;;;;25.33;20.30;;;;;;;2.05;92.87;96250.03;5012713;28;20022;-51
2022/01/31 09:13:00;;;;;;;21.45;17.00;;;;;;;2.11;93.08;96240.16;5012655;28;20107;-50
2022/01/31 09:15:25;;;;;;;22.20;16.65;;;;;;;2.20;92.54;96228.47;5012712;28;20521;-49
2022/01/31 09:17:51;;;;;;;20.10;14.95;;;;;;;2.35;92.56;96223.44;5013971;28;20072;-52
2022/01/31 09:20:18;;;;;;;23.20;14.25;;;;;;;2.53;93.10;96225.06;5014639;28;20037;-47
2022/01/31 09:22:43;;;;;;;13.02;11.68;;;;;;;2.74;91.48;96226.66;5014065;28;20104;-51
2022/01/31 09:25:10;;;;;;;19.75;16.98;;;;;;;2.90;89.71;96222.31;5014872;28;20521;-51
2022/01/31 09:27:36;;;;;;;20.65;16.75;;;;;;;3.06;89.05;96224.09;5012544;28;20029;-47
2022/01/31 09:30:06;;;;;;;18.48;13.77;;;;;;;3.13;87.51;96215.88;5013097;28;20026;-51
2022/01/31 09:32:31;;;;;;;16.52;13.48;;;;;;;3.23;88.11;96207.59;5013022;28;20030;-49
2022/01/31 09:34:57;;;;;;;15.98;13.75;;;;;;;3.33;88.06;96210.53;5014316;28;20442;-49
2022/01/31 09:37:24;;;;;;;16.13;13.18;;;;;;;3.40;87.33;96204.88;5011062;28;20033;-51
2022/01/31 09:39:50;;;;;;;14.18;11.50;;;;;;;3.56;87.86;96196.22;5013831;28;20033;-47
2022/01/31 09:42:27;;;;;;;13.95;10.35;;;;;;;3.65;87.77;96193.09;5013702;28;20045;-51
2022/01/31 09:48:30;;;;;;;10.40;9.30;;;;;;;3.73;86.64;96180.47;5013799;28;20243;-47
2022/01/31 09:50:09;;;;;;;13.98;9.88;;;;;;;3.83;86.23;96174.72;5011357;28;20022;-50
2022/01/31 09:52:35;;;;;;;9.63;8.55;;;;;;;3.89;85.70;96166.56;5012430;28;20045;-50
2022/01/31 09:55:00;;;;;;;14.88;11.93;;;;;;;4.00;85.35;96176.38;5013739;28;20034;-50
2022/01/31 09:57:25;;;;;;;18.30;13.80;;;;;;;4.01;85.14;96168.44;5014140;28;20042;-49
2022/01/31 09:59:51;;;;;;;12.00;10.18;;;;;;;3.95;84.09;96167.97;5013616;28;20481;-50
2022/01/31 10:02:18;;;;;;;13.02;9.38;;;;;;;3.89;83.57;96163.97;5013511;28;20029;-48
2022/01/31 10:04:45;;;;;;;10.13;7.15;;;;;;;3.96;83.49;96162.69;5013047;28;20021;-50
2022/01/31 10:07:14;;;;;;;9.63;6.30;;;;;;;3.99;82.35;96148.63;5009208;28;20456;-49
2022/01/31 10:09:43;;;;;;;14.60;6.47;;;;;;;4.14;82.68;96146.91;5011323;28;20109;-52
2022/01/31 10:17:42;;;;;;;10.13;8.18;;;;;;;4.10;81.80;96159.25;5011460;28;20097;-52
2022/01/31 10:20:28;;;;;;;9.90;8.55;;;;;;;4.12;82.78;96138.31;5013226;28;20117;-50
2022/01/31 10:22:54;;;;;;;14.13;10.40;;;;;;;4.14;82.79;96126.03;5013019;28;20026;-50
2022/01/31 10:25:22;;;;;;;10.80;9.70;;;;;;;4.39;82.33;96122.78;5013256;28;20052;-49
2022/01/31 10:27:50;;;;;;;17.10;12.75;;;;;;;4.62;81.00;96124.94;5010690;28;20033;-49
2022/01/31 10:30:26;;;;;;;14.93;12.88;;;;;;;4.45;81.97;96118.97;5012385;28;20038;-50
2022/01/31 10:32:53;;;;;;;18.77;14.45;;;;;;;4.28;82.74;96113.00;5008127;28;20021;-49
2022/01/31 10:35:32;;;;;;;21.02;14.68;;;;;;;4.22;83.38;96113.38;5011819;28;20037;-47
2022/01/31 10:38:08;;;;;;;18.90;14.38;;;;;;;4.18;82.58;96100.63;5011197;28;20538;-51
2022/01/31 10:56:55;;;;;;;13.88;11.40;;;;;;;4.44;79.78;96086.00;5005705;28;20120;-49
2022/01/31 10:59:43;;;;;;;19.40;13.87;;;;;;;4.32;80.88;96078.94;5013127;28;20101;-53
2022/01/31 11:02:17;;;;;;;16.30;12.73;;;;;;;4.14;82.03;96079.97;5011601;28;20788;-52
2022/01/31 11:04:44;;;;;;;17.23;11.85;;;;;;;4.32;81.14;96071.97;5011134;28;20045;-54
2022/01/31 11:07:13;;;;;;;19.33;13.82;;;;;;;4.19;81.51;96077.09;5012391;28;20080;-52
2022/01/31 11:09:41;;;;;;;17.50;13.82;;;;;;;4.35;80.91;96089.19;5008479;28;20497;-51
2022/01/31 11:12:09;;;;;;;19.52;13.55;;;;;;;4.42;80.08;96082.66;5003528;28;20041;-53
2022/01/31 11:14:39;;;;;;;16.20;12.13;;;;;;;4.14;80.81;96081.75;5010955;28;20113;-51
2022/01/31 11:17:10;;;;;;;18.52;15.13;;;;;;;3.99;81.28;96086.94;5011269;28;20491;-50
2022/01/31 11:19:37;;;;;;;19.92;15.60;;;;;;;3.84;81.91;96086.09;5009528;28;20044;-50
2022/01/31 11:22:07;;;;;;;16.98;14.85;;;;;;;3.73;82.21;96060.66;5010306;28;20053;-51
2022/01/31 11:24:38;;;;;;;18.55;13.05;;;;;;;3.69;82.02;96064.38;5010329;28;20033;-54
2022/01/31 11:27:15;;;;;;;18.48;13.82;;;;;;;4.05;81.44;96077.06;5010419;28;20026;-48
2022/01/31 11:29:45;;;;;;;15.52;13.40;;;;;;;4.24;81.52;96084.63;5011045;28;20374;-49
2022/01/31 11:32:11;;;;;;;13.85;12.05;;;;;;;4.26;81.10;96080.97;5010723;28;20482;-50
2022/01/31 11:34:43;;;;;;;16.83;14.45;;;;;;;4.29;81.06;96072.97;5010320;28;20100;-49
2022/01/31 11:37:10;;;;;;;19.83;16.40;;;;;;;4.29;80.69;96069.53;5008826;28;20118;-50
2022/01/31 11:39:45;;;;;;;19.85;15.75;;;;;;;4.11;81.26;96072.31;5010619;28;20440;-51
2022/01/31 11:42:13;;;;;;;26.45;16.45;;;;;;;3.90;81.46;96077.06;5010620;28;20084;-50